Lavinia, Minnesota
Current Conditions -  °F | °C
As of 8:53 PM on Wednesday 26 Nov 2014 (Local Time) from KHIB Reporting Station
Clear Clear  
Wind Chill: -17°   Ceiling: Unl
Heat Index:   Visibility: 10mi
Dew Point: -8°   Wind: 12mph
Humidity: 69%   Direction: 350°N
Pressure: 30.35"   Gusts: NA
Location:  47.4158°N, 93.0053°W
Report Text: KHIB 270253Z AUTO 35010KT 10SM CLR M18/M22 A3035 RMK AO2 SLP314 T11781222 51013
Loading
Personal Weather Stations






























Interactive Weather Map New forecast layout! Learn more

10-Day Weather Forecast

Advertisements
Track Severe Weather on mobile